Time;durP1;ratioP1;P1;durP2;ratioP2;P2;SDS_P1;SDS_P2;PMS_P1;PMS_P2;Temp;Humidity;BMP_temperature;BMP_pressure;BME280_temperature;BME280_humidity;BME280_pressure;Samples;Min_cycle;Max_cycle;Signal;HPM_P1;HPM_P2
2021/06/11 00:02:18;;;;;;;6.40;5.00;;;;;;;14.75;63.01;101410.69;1686288;83;21062;-86
2021/06/11 00:04:45;;;;;;;8.98;4.53;;;;;;;14.74;63.09;101404.03;1711625;83;21082;-86
2021/06/11 00:07:18;;;;;;;9.43;4.72;;;;;;;14.76;63.14;101404.95;1679677;83;21082;-87
2021/06/11 00:09:47;;;;;;;8.95;4.65;;;;;;;14.76;63.19;101404.51;1707897;83;21619;-87
2021/06/11 00:12:15;;;;;;;4.83;4.30;;;;;;;14.77;63.23;101404.98;1632245;87;21089;-87
2021/06/11 00:14:43;;;;;;;8.28;3.90;;;;;;;14.79;63.31;101405.02;1632668;87;21014;-86
2021/06/11 00:17:14;;;;;;;5.58;4.05;;;;;;;14.81;63.37;101400.63;1631460;87;21082;-86
2021/06/11 00:19:44;;;;;;;7.72;4.35;;;;;;;14.83;63.44;101404.20;1634798;84;21034;-86
2021/06/11 00:22:11;;;;;;;6.83;3.92;;;;;;;14.84;63.47;101400.66;1639493;85;21647;-86
2021/06/11 00:24:38;;;;;;;5.55;4.00;;;;;;;14.86;63.50;101398.94;1684619;85;21079;-86
2021/06/11 00:27:07;;;;;;;6.30;4.03;;;;;;;14.85;63.56;101406.44;1684984;85;21087;-86
2021/06/11 00:29:33;;;;;;;5.62;3.83;;;;;;;14.86;63.60;101405.56;1684835;85;21696;-87
2021/06/11 00:32:02;;;;;;;7.12;4.25;;;;;;;14.85;63.67;101402.91;1684560;85;21044;-86
2021/06/11 00:34:31;;;;;;;5.58;4.72;;;;;;;14.86;63.73;101404.67;1684033;85;21099;-86
2021/06/11 00:36:58;;;;;;;7.75;4.10;;;;;;;14.85;63.77;101397.61;1684895;85;21091;-86
2021/06/11 00:39:24;;;;;;;6.17;4.05;;;;;;;14.84;63.84;101401.11;1684958;85;21615;-86
2021/06/11 00:41:51;;;;;;;7.95;4.65;;;;;;;14.83;63.87;101397.58;1685037;85;21111;-86
2021/06/11 00:44:18;;;;;;;7.90;4.55;;;;;;;14.83;63.89;101396.66;1685040;85;21095;-86
2021/06/11 00:46:45;;;;;;;8.20;4.67;;;;;;;14.83;63.91;101398.90;1685160;85;22366;-86
2021/06/11 00:49:11;;;;;;;7.30;4.92;;;;;;;14.84;63.90;101395.36;1706598;80;21560;-87
2021/06/11 00:51:38;;;;;;;9.85;4.75;;;;;;;14.84;63.90;101398.45;1772562;80;21519;-87
2021/06/11 00:54:05;;;;;;;13.13;5.47;;;;;;;14.85;63.91;101401.14;1772941;80;21098;-86
2021/06/11 00:56:35;;;;;;;10.82;4.83;;;;;;;14.84;63.87;101401.11;1772186;80;21102;-86
2021/06/11 00:59:02;;;;;;;6.20;4.40;;;;;;;14.79;63.90;101397.06;1772488;80;21814;-86
2021/06/11 01:01:29;;;;;;;6.53;4.55;;;;;;;14.73;63.93;101400.50;1772471;80;21043;-86
2021/06/11 01:03:55;;;;;;;5.80;4.60;;;;;;;14.67;63.95;101395.50;1772619;80;21126;-86
2021/06/11 01:06:22;;;;;;;6.78;5.10;;;;;;;14.62;64.05;101394.52;1765486;80;21613;-86
2021/06/11 01:08:51;;;;;;;13.93;5.00;;;;;;;14.56;64.11;101392.20;1772278;80;21077;-86
2021/06/11 01:11:18;;;;;;;8.55;4.97;;;;;;;14.51;64.19;101395.19;1772681;80;21764;-87
2021/06/11 01:13:44;;;;;;;6.33;4.80;;;;;;;14.48;64.35;101393.80;1743652;80;21066;-86
2021/06/11 01:16:15;;;;;;;7.78;5.03;;;;;;;14.44;64.53;101381.36;1772498;80;21031;-87
2021/06/11 01:18:50;;;;;;;11.65;5.55;;;;;;;14.45;64.67;101370.32;1670711;84;21716;-87
2021/06/11 01:21:32;;;;;;;6.28;4.80;;;;;;;14.47;64.74;101373.48;1673219;85;21190;-87
2021/06/11 01:24:21;;;;;;;7.08;5.03;;;;;;;14.50;64.77;101374.84;1647962;86;21198;-86
2021/06/11 01:26:50;;;;;;;6.72;4.92;;;;;;;14.51;64.82;101379.29;1655642;85;21058;-88
2021/06/11 01:29:37;;;;;;;9.05;4.90;;;;;;;14.53;64.89;101375.35;1673074;85;21098;-87
2021/06/11 01:32:31;;;;;;;6.65;4.60;;;;;;;14.55;64.93;101367.00;1640981;87;21095;-87
2021/06/11 01:35:31;;;;;;;9.95;5.10;;;;;;;14.58;64.95;101362.69;1570158;90;21180;-87
2021/06/11 01:38:02;;;;;;;8.00;4.95;;;;;;;14.61;64.96;101355.66;1593435;90;21650;-86
2021/06/11 01:40:30;;;;;;;9.08;4.67;;;;;;;14.63;64.98;101350.83;1574108;89;21159;-86
2021/06/11 01:42:59;;;;;;;7.15;4.53;;;;;;;14.64;65.08;101351.31;1569589;91;21151;-86
2021/06/11 01:45:26;;;;;;;6.97;4.47;;;;;;;14.66;65.14;101354.88;1569511;91;21183;-86
2021/06/11 01:47:53;;;;;;;6.78;4.60;;;;;;;14.69;65.22;101360.65;1569789;90;21144;-87
2021/06/11 01:50:31;;;;;;;7.45;4.40;;;;;;;14.71;65.26;101355.83;1569192;91;41819;-87
2021/06/11 01:53:04;;;;;;;7.45;4.60;;;;;;;14.74;65.29;101357.22;1569004;91;21220;-86
2021/06/11 01:55:32;;;;;;;5.83;3.70;;;;;;;14.77;65.32;101361.66;1578561;90;21497;-86
2021/06/11 01:58:01;;;;;;;5.55;3.95;;;;;;;14.81;65.30;101363.53;1591657;89;21751;-86
2021/06/11 02:00:29;;;;;;;5.30;4.17;;;;;;;14.83;65.35;101357.82;1583132;90;21149;-86
2021/06/11 02:02:55;;;;;;;8.73;3.70;;;;;;;14.86;65.34;101357.85;1591862;90;21802;-86
2021/06/11 02:05:22;;;;;;;4.65;4.08;;;;;;;14.90;65.34;101358.39;1591925;89;21703;-86
2021/06/11 02:07:49;;;;;;;7.97;3.58;;;;;;;14.95;65.34;101351.83;1592191;90;21137;-86
2021/06/11 02:10:18;;;;;;;5.42;3.70;;;;;;;14.99;65.30;101354.09;1665222;84;21669;-86
2021/06/11 02:12:45;;;;;;;5.45;3.42;;;;;;;15.04;65.34;101347.12;1736220;81;21058;-86
2021/06/11 02:15:16;;;;;;;6.72;3.60;;;;;;;15.07;65.25;101341.44;1747091;81;21451;-86
2021/06/11 02:17:44;;;;;;;6.50;3.87;;;;;;;15.11;65.22;101338.40;1747352;81;21051;-86
2021/06/11 02:20:19;;;;;;;5.10;3.60;;;;;;;15.14;65.18;101327.82;1767351;81;21019;-86
2021/06/11 02:22:50;;;;;;;8.13;3.83;;;;;;;15.16;65.15;101327.00;1769564;80;21027;-86
2021/06/11 02:25:24;;;;;;;7.00;4.00;;;;;;;15.23;65.14;101325.76;1741673;81;21097;-86
2021/06/11 02:27:54;;;;;;;6.95;4.10;;;;;;;15.27;65.08;101334.20;1798699;79;21011;-87
2021/06/11 02:30:29;;;;;;;5.58;3.80;;;;;;;15.29;65.03;101328.05;1781368;80;21058;-87
2021/06/11 02:33:00;;;;;;;5.42;4.10;;;;;;;15.33;65.01;101328.58;1743571;82;21676;-85
2021/06/11 02:35:27;;;;;;;7.12;3.87;;;;;;;15.36;64.97;101322.41;1679239;83;21051;-86
2021/06/11 02:37:54;;;;;;;6.90;4.25;;;;;;;15.41;64.90;101331.34;1728609;83;21853;-86
2021/06/11 02:40:20;;;;;;;7.08;4.28;;;;;;;15.43;64.86;101340.20;1728411;83;22276;-86
2021/06/11 02:42:54;;;;;;;6.58;3.85;;;;;;;15.46;64.82;101343.33;1728892;83;21039;-86
2021/06/11 02:45:28;;;;;;;9.13;4.33;;;;;;;15.48;64.73;101341.14;1728484;83;21224;-86
2021/06/11 02:48:21;;;;;;;5.00;4.03;;;;;;;15.51;64.74;101341.64;1704157;83;21051;-86
2021/06/11 02:51:14;;;;;;;12.90;4.12;;;;;;;15.54;64.68;101339.01;1680557;83;21096;-86
2021/06/11 02:53:43;;;;;;;6.37;4.30;;;;;;;15.57;64.63;101340.84;1638382;85;21685;-86
2021/06/11 02:56:14;;;;;;;5.45;4.47;;;;;;;15.61;64.66;101345.30;1650490;85;21084;-87
2021/06/11 02:59:07;;;;;;;6.22;4.40;;;;;;;15.66;64.67;101351.58;1678470;84;21123;-87
2021/06/11 03:01:40;;;;;;;6.92;4.28;;;;;;;15.72;64.61;101345.02;1678367;85;21152;-86
2021/06/11 03:04:08;;;;;;;;;;;;;;;15.82;64.59;101344.73;1679874;85;21610;-86
2021/06/11 03:06:35;;;;;;;8.15;4.60;;;;;;;15.93;64.66;101348.41;1678484;84;21948;-86
2021/06/11 03:09:07;;;;;;;5.47;3.92;;;;;;;16.05;64.48;101347.70;1655754;85;21178;-86
2021/06/11 03:11:37;;;;;;;7.45;4.80;;;;;;;16.18;64.45;101348.70;1649257;85;21183;-87
2021/06/11 03:14:16;;;;;;;5.62;3.90;;;;;;;16.37;64.42;101345.40;1632894;87;21052;-87
2021/06/11 03:16:53;;;;;;;7.87;4.47;;;;;;;16.61;64.22;101353.14;1652568;86;21069;-86
2021/06/11 03:19:33;;;;;;;5.90;4.53;;;;;;;16.92;64.06;101345.51;1556219;92;21126;-87
2021/06/11 03:22:12;;;;;;;5.10;4.00;;;;;;;17.24;63.71;101350.62;1556133;92;21091;-88
2021/06/11 03:24:59;;;;;;;4.97;3.75;;;;;;;17.58;63.28;101349.95;1495144;94;21201;-87
2021/06/11 03:27:33;;;;;;;6.30;3.77;;;;;;;17.99;63.04;101339.53;1508495;91;21152;-86
2021/06/11 03:30:21;;;;;;;7.37;3.83;;;;;;;19.30;64.22;101337.50;1559641;91;21145;-86
2021/06/11 03:33:00;;;;;;;8.23;3.62;;;;;;;21.11;62.59;101331.20;1522631;91;22105;-85
2021/06/11 03:35:45;;;;;;;5.15;3.75;;;;;;;22.54;60.76;101329.09;1559092;90;21584;-86
2021/06/11 03:38:19;;;;;;;4.87;3.62;;;;;;;23.85;58.43;101326.33;1509876;94;21117;-86
2021/06/11 03:40:57;;;;;;;7.30;3.58;;;;;;;24.04;55.37;101330.41;1482063;95;21240;-85
2021/06/11 03:43:18;;;;;;;5.37;3.50;;;;;;;23.59;54.34;101333.08;1509397;93;21590;-84
2021/06/11 03:45:48;;;;;;;5.20;3.60;;;;;;;23.52;54.33;101331.88;1510066;95;22845;-85
2021/06/11 03:48:15;;;;;;;6.05;3.35;;;;;;;24.10;54.19;101340.59;1509550;93;21851;-85
2021/06/11 03:50:43;;;;;;;5.03;3.00;;;;;;;25.51;54.30;101341.65;1510717;93;21642;-86
2021/06/11 03:53:12;;;;;;;8.93;3.15;;;;;;;27.34;52.21;101333.27;1517992;94;21200;-86
2021/06/11 03:55:44;;;;;;;5.03;3.30;;;;;;;28.89;50.63;101331.34;1498753;94;21708;-87
2021/06/11 03:58:35;;;;;;;4.55;2.95;;;;;;;30.37;48.43;101326.07;1517229;94;21929;-88
2021/06/11 04:01:03;;;;;;;4.97;2.85;;;;;;;31.49;46.22;101328.14;1517946;94;21219;-88
2021/06/11 04:03:30;;;;;;;4.45;2.72;;;;;;;32.74;44.49;101326.16;1590337;88;21150;-86
2021/06/11 04:06:04;;;;;;;6.97;2.85;;;;;;;33.74;42.78;101324.68;1612759;88;21244;-87
2021/06/11 04:08:34;;;;;;;4.05;2.77;;;;;;;34.68;41.24;101327.67;1611953;88;21058;-87
2021/06/11 04:11:04;;;;;;;3.95;2.80;;;;;;;35.66;39.68;101324.57;1713039;83;21042;-88
2021/06/11 04:13:51;;;;;;;4.45;2.50;;;;;;;36.47;38.05;101313.16;1713217;83;21059;-88
2021/06/11 04:16:25;;;;;;;4.78;2.80;;;;;;;37.20;36.80;101318.61;1713596;83;21126;-86
2021/06/11 04:18:54;;;;;;;5.30;2.60;;;;;;;37.79;34.63;101324.48;1713303;83;21132;-87
2021/06/11 04:21:22;;;;;;;6.10;2.60;;;;;;;37.94;33.80;101319.09;1697343;80;21093;-90
2021/06/11 04:23:52;;;;;;;3.22;2.35;;;;;;;38.26;33.09;101327.96;1774667;80;22429;-90
2021/06/11 04:26:21;;;;;;;5.05;2.58;;;;;;;38.73;31.74;101324.98;1781338;79;21108;-90
2021/06/11 04:28:49;;;;;;;4.15;2.30;;;;;;;39.07;30.90;101323.83;1800651;79;21053;-90
2021/06/11 04:31:16;;;;;;;5.72;2.40;;;;;;;39.55;30.20;101325.67;1783497;80;21743;-89
2021/06/11 04:34:12;;;;;;;8.18;2.42;;;;;;;40.07;29.07;101325.66;1782757;79;21069;-93
2021/06/11 04:36:39;;;;;;;9.05;2.40;;;;;;;40.22;28.41;101326.99;1782542;80;21826;-94
2021/06/11 04:39:07;;;;;;;3.05;1.90;;;;;;;40.69;27.64;101325.85;1783626;80;21191;-93
2021/06/11 04:41:34;;;;;;;5.78;2.15;;;;;;;41.02;27.00;101326.99;1783752;80;21016;-90
2021/06/11 04:44:03;;;;;;;5.62;2.00;;;;;;;41.47;26.35;101320.83;1784141;80;21323;-90
2021/06/11 04:46:30;;;;;;;5.25;2.30;;;;;;;41.79;25.40;101318.20;1784138;80;21059;-90
2021/06/11 04:48:56;;;;;;;4.62;3.27;;;;;;;42.11;25.30;101321.91;1784415;80;22501;-87
2021/06/11 04:51:24;;;;;;;6.03;1.80;;;;;;;42.46;24.25;101325.75;1782872;80;21022;-82
2021/06/11 04:53:51;;;;;;;2.02;1.60;;;;;;;42.54;23.72;101320.34;1782943;80;21081;-84
2021/06/11 04:56:18;;;;;;;4.60;2.00;;;;;;;42.74;23.72;101319.66;1782893;80;21011;-83
2021/06/11 04:58:48;;;;;;;16.55;3.12;;;;;;;43.27;23.06;101322.91;1782620;80;21035;-83
2021/06/11 05:01:15;;;;;;;6.22;1.92;;;;;;;43.48;22.57;101324.46;1782819;80;22582;-83
2021/06/11 05:03:42;;;;;;;5.90;2.17;;;;;;;43.44;22.04;101316.98;1782908;80;21069;-83
2021/06/11 05:06:11;;;;;;;3.72;1.98;;;;;;;43.56;21.77;101320.34;1783019;80;21065;-83
2021/06/11 05:08:41;;;;;;;7.67;2.00;;;;;;;43.93;21.60;101321.95;1782890;80;21654;-84
2021/06/11 05:11:07;;;;;;;6.05;2.80;;;;;;;44.06;21.09;101316.80;1783105;80;20998;-83
2021/06/11 05:13:34;;;;;;;12.68;2.67;;;;;;;44.12;20.64;101315.28;1782499;80;22579;-83
2021/06/11 05:16:01;;;;;;;7.25;2.30;;;;;;;44.08;20.66;101313.00;1782195;80;21073;-83
2021/06/11 05:18:29;;;;;;;16.02;3.08;;;;;;;44.29;20.32;101306.48;1782129;80;21579;-82
2021/06/11 05:21:02;;;;;;;4.83;2.35;;;;;;;44.36;20.29;101313.10;1782437;80;21539;-83
2021/06/11 05:23:30;;;;;;;5.15;2.02;;;;;;;44.75;19.82;101310.22;1782465;80;21057;-83
2021/06/11 05:25:57;;;;;;;7.17;2.30;;;;;;;44.67;19.55;101311.08;1774041;79;21777;-83
2021/06/11 05:28:38;;;;;;;5.58;2.20;;;;;;;44.53;19.58;101314.03;1775399;80;21552;-83
2021/06/11 05:31:16;;;;;;;11.40;3.08;;;;;;;44.67;19.39;101306.06;1763628;80;21054;-83
2021/06/11 05:34:02;;;;;;;4.67;2.05;;;;;;;44.57;18.90;101300.15;1775884;80;21061;-82
2021/06/11 05:36:29;;;;;;;3.15;2.10;;;;;;;43.92;19.04;101301.31;1765386;80;21082;-83
2021/06/11 05:38:56;;;;;;;7.17;2.70;;;;;;;43.99;19.44;101307.93;1777044;80;21681;-82
2021/06/11 05:41:23;;;;;;;13.15;2.67;;;;;;;44.15;18.89;101307.13;1765079;80;21058;-83
2021/06/11 05:43:51;;;;;;;4.80;2.37;;;;;;;42.25;18.64;101304.77;1775820;80;21697;-83
2021/06/11 05:46:20;;;;;;;6.30;3.50;;;;;;;39.46;19.35;101299.84;1764807;79;21568;-83
2021/06/11 05:48:49;;;;;;;10.08;3.25;;;;;;;37.01;20.57;101297.20;1775827;80;21488;-82
2021/06/11 05:51:16;;;;;;;4.58;2.75;;;;;;;34.74;21.92;101298.53;1765075;79;22604;-83
2021/06/11 05:53:43;;;;;;;10.35;3.33;;;;;;;33.09;23.41;101294.50;1776018;80;21038;-83
2021/06/11 05:56:09;;;;;;;7.75;2.67;;;;;;;31.74;24.67;101297.73;1776543;80;21045;-82
2021/06/11 05:58:36;;;;;;;17.65;3.85;;;;;;;30.49;25.96;101295.19;1766001;81;21040;-82
2021/06/11 06:01:05;;;;;;;5.62;2.83;;;;;;;29.49;27.25;101299.40;1776554;80;21275;-82
2021/06/11 06:03:32;;;;;;;5.97;2.52;;;;;;;28.67;28.38;101297.48;1765972;80;21717;-83
2021/06/11 06:05:58;;;;;;;9.83;4.15;;;;;;;27.93;29.47;101300.92;1765910;80;21070;-82
2021/06/11 06:08:25;;;;;;;5.35;3.27;;;;;;;27.25;30.44;101295.72;1776398;80;21143;-83
2021/06/11 06:10:52;;;;;;;8.75;3.37;;;;;;;26.67;31.37;101298.62;1765934;80;21575;-83
2021/06/11 06:13:20;;;;;;;8.35;3.80;;;;;;;26.26;32.42;101299.45;1776747;80;21050;-83
2021/06/11 06:15:47;;;;;;;12.18;3.52;;;;;;;25.90;33.20;101304.59;1770571;81;22393;-83
2021/06/11 06:18:14;;;;;;;7.12;3.55;;;;;;;25.55;33.92;101304.27;1776535;80;21572;-83
2021/06/11 06:20:44;;;;;;;8.10;3.22;;;;;;;25.26;34.78;101301.91;1765940;80;21031;-83
2021/06/11 06:23:12;;;;;;;9.85;3.77;;;;;;;24.99;35.31;101294.96;1765136;80;21069;-83
2021/06/11 06:25:39;;;;;;;6.60;2.87;;;;;;;24.76;35.86;101296.91;1775107;80;21315;-82
2021/06/11 06:28:06;;;;;;;6.10;3.90;;;;;;;24.57;36.48;101296.48;1768406;81;21821;-83
2021/06/11 06:30:33;;;;;;;4.70;3.60;;;;;;;24.32;36.79;101292.58;1768558;80;21125;-83
2021/06/11 06:33:00;;;;;;;8.25;3.37;;;;;;;24.05;37.57;101291.83;1768730;81;20995;-83
2021/06/11 06:35:27;;;;;;;10.18;2.90;;;;;;;23.93;38.05;101299.27;1768560;81;21073;-82
2021/06/11 06:37:54;;;;;;;11.30;3.33;;;;;;;23.79;38.38;101293.73;1768675;81;21097;-83
2021/06/11 06:40:20;;;;;;;5.75;3.20;;;;;;;23.76;38.90;101294.22;1768567;81;21751;-83
2021/06/11 06:42:47;;;;;;;8.45;3.50;;;;;;;23.68;39.68;101287.67;1768404;80;21493;-82
2021/06/11 06:45:14;;;;;;;8.18;3.45;;;;;;;23.68;39.68;101287.67;1768559;81;21110;-83
2021/06/11 06:47:44;;;;;;;5.87;3.02;;;;;;;23.68;39.68;101301.11;1768792;80;21326;-83
2021/06/11 06:50:16;;;;;;;14.53;3.60;;;;;;;23.60;40.08;101287.83;1768667;80;21074;-83
2021/06/11 06:52:43;;;;;;;5.87;3.75;;;;;;;23.52;39.76;101285.77;1762442;80;21759;-82
2021/06/11 06:55:11;;;;;;;4.97;3.00;;;;;;;23.37;40.07;101285.61;1768346;81;21130;-82
2021/06/11 06:57:37;;;;;;;4.42;2.37;;;;;;;23.32;40.43;101287.50;1768876;81;21153;-82
2021/06/11 07:00:06;;;;;;;4.08;2.90;;;;;;;23.30;40.65;101279.93;1768294;81;21164;-83
2021/06/11 07:02:33;;;;;;;7.33;2.75;;;;;;;23.26;40.82;101278.23;1769044;81;21136;-82
2021/06/11 07:05:00;;;;;;;6.83;3.27;;;;;;;23.25;41.18;101275.09;1768142;81;21788;-82
2021/06/11 07:07:27;;;;;;;3.33;2.60;;;;;;;23.25;41.35;101276.44;1768555;81;21106;-82
2021/06/11 07:09:54;;;;;;;7.97;3.00;;;;;;;23.23;41.47;101280.49;1768767;81;21038;-82
2021/06/11 07:12:20;;;;;;;7.83;2.85;;;;;;;23.25;41.46;101280.00;1768813;80;21619;-82
2021/06/11 07:14:47;;;;;;;3.67;2.67;;;;;;;23.31;41.57;101267.37;1769272;81;20988;-82
2021/06/11 07:17:14;;;;;;;11.22;2.98;;;;;;;23.36;41.75;101273.09;1768320;81;21821;-82
2021/06/11 07:19:40;;;;;;;6.75;2.80;;;;;;;23.40;41.84;101279.28;1768716;80;21047;-82
2021/06/11 07:22:08;;;;;;;6.85;2.70;;;;;;;23.42;41.84;101276.98;1768833;80;21070;-83
2021/06/11 07:24:37;;;;;;;6.87;2.67;;;;;;;23.42;41.67;101276.11;1768848;81;21066;-82
2021/06/11 07:27:05;;;;;;;5.33;2.45;;;;;;;23.41;41.83;101274.36;1771772;80;21058;-82
2021/06/11 07:29:33;;;;;;;6.85;2.50;;;;;;;23.46;41.74;101278.72;1765952;80;21886;-83
2021/06/11 07:31:59;;;;;;;3.40;2.62;;;;;;;23.38;41.40;101278.44;1776839;80;21659;-83
2021/06/11 07:34:26;;;;;;;3.30;2.37;;;;;;;23.22;41.15;101277.86;1766152;80;21122;-82
2021/06/11 07:36:53;;;;;;;3.47;2.30;;;;;;;23.13;41.41;101269.51;1776892;80;20983;-82
2021/06/11 07:39:20;;;;;;;5.30;2.35;;;;;;;23.15;41.83;101276.20;1766364;80;21074;-83
2021/06/11 07:41:49;;;;;;;4.33;3.52;;;;;;;23.21;41.85;101274.27;1776713;80;21749;-82
2021/06/11 07:44:15;;;;;;;9.35;2.72;;;;;;;23.30;41.80;101279.93;1777113;79;21103;-82
2021/06/11 07:46:42;;;;;;;4.15;2.75;;;;;;;23.40;41.70;101279.28;1766206;80;21060;-82
2021/06/11 07:49:09;;;;;;;5.90;2.37;;;;;;;23.47;41.43;101287.66;1776924;80;21584;-82
2021/06/11 07:51:35;;;;;;;4.58;2.87;;;;;;;23.55;41.42;101282.13;1766194;81;21070;-82
2021/06/11 07:54:02;;;;;;;4.20;2.55;;;;;;;23.68;41.43;101287.20;1776874;80;21838;-82
2021/06/11 07:56:32;;;;;;;5.80;2.47;;;;;;;23.72;41.07;101281.77;1766144;80;21098;-82
2021/06/11 07:58:59;;;;;;;8.25;2.80;;;;;;;23.76;40.99;101288.41;1776560;80;21337;-82
2021/06/11 08:01:26;;;;;;;4.40;3.12;;;;;;;23.89;40.97;101290.85;1766044;80;21062;-82
2021/06/11 08:03:53;;;;;;;3.77;2.40;;;;;;;23.93;40.63;101283.14;1776849;80;20979;-83
2021/06/11 08:06:20;;;;;;;8.58;2.55;;;;;;;23.98;40.91;101293.34;1766036;80;22382;-82
2021/06/11 08:08:47;;;;;;;5.53;2.45;;;;;;;24.16;40.86;101286.21;1776269;80;21050;-83
2021/06/11 08:11:13;;;;;;;10.88;2.70;;;;;;;24.36;40.73;101291.58;1766043;80;21050;-83
2021/06/11 08:13:40;;;;;;;7.42;3.15;;;;;;;24.63;40.03;101283.34;1776718;80;21192;-82
2021/06/11 08:16:07;;;;;;;4.70;2.33;;;;;;;24.63;40.03;101283.34;1765965;80;21078;-83
2021/06/11 08:18:34;;;;;;;3.50;2.42;;;;;;;24.73;39.82;101271.88;1776662;80;21772;-82
2021/06/11 08:21:00;;;;;;;5.28;2.65;;;;;;;24.96;39.69;101276.21;1765914;80;21053;-83
2021/06/11 08:23:27;;;;;;;4.62;2.27;;;;;;;25.22;39.59;101278.17;1776480;80;21054;-83
2021/06/11 08:25:54;;;;;;;8.68;2.90;;;;;;;25.30;39.19;101273.07;1766011;80;20984;-83
2021/06/11 08:28:21;;;;;;;9.15;2.58;;;;;;;25.17;38.87;101277.87;1776502;80;21069;-83
2021/06/11 08:30:47;;;;;;;7.87;3.08;;;;;;;25.06;38.90;101270.11;1766146;80;21761;-82
2021/06/11 08:33:16;;;;;;;5.80;2.58;;;;;;;25.09;38.92;101263.74;1776518;80;21031;-83
2021/06/11 08:35:43;;;;;;;5.55;2.52;;;;;;;25.08;38.85;101256.13;1765934;80;21062;-83
2021/06/11 08:38:10;;;;;;;2.80;2.20;;;;;;;25.14;38.70;101260.00;1776699;80;21611;-83
2021/06/11 08:40:37;;;;;;;8.90;2.65;;;;;;;25.21;38.70;101261.59;1765931;80;21592;-83
2021/06/11 08:43:03;;;;;;;3.02;2.42;;;;;;;25.27;38.59;101259.23;1776545;80;21802;-83
2021/06/11 08:45:33;;;;;;;7.05;2.77;;;;;;;25.43;38.60;101259.66;1765994;80;21549;-83
2021/06/11 08:48:07;;;;;;;4.53;2.45;;;;;;;25.65;38.46;101256.36;1765942;81;21321;-84
2021/06/11 08:50:35;;;;;;;3.27;2.33;;;;;;;25.78;37.98;101253.23;1776097;80;21042;-83
2021/06/11 08:53:04;;;;;;;4.03;2.10;;;;;;;25.97;37.59;101245.96;1776664;80;21077;-83
2021/06/11 08:55:32;;;;;;;2.85;2.30;;;;;;;26.11;37.37;101250.91;1765713;81;21804;-83
2021/06/11 08:58:02;;;;;;;3.52;2.45;;;;;;;26.27;37.15;101256.23;1776411;80;21010;-83
2021/06/11 09:00:32;;;;;;;5.60;2.52;;;;;;;26.35;37.11;101248.80;1765793;81;21051;-83
2021/06/11 09:03:10;;;;;;;8.43;2.92;;;;;;;26.57;36.83;101251.64;1766019;79;21216;-83
2021/06/11 09:05:38;;;;;;;7.65;2.80;;;;;;;26.65;36.70;101247.84;1776597;80;21086;-83
2021/06/11 09:08:20;;;;;;;3.98;2.30;;;;;;;26.52;36.52;101252.28;1765824;80;22365;-83
2021/06/11 09:10:52;;;;;;;7.70;2.80;;;;;;;26.36;36.66;101253.24;1776349;80;21143;-83
2021/06/11 09:13:28;;;;;;;4.25;2.33;;;;;;;26.21;36.64;101245.66;1772607;80;21074;-83
2021/06/11 09:16:17;;;;;;;4.30;2.83;;;;;;;26.02;36.80;101256.63;1765988;81;21035;-83
2021/06/11 09:18:47;;;;;;;6.70;2.45;;;;;;;25.76;36.94;101258.27;1776541;80;21054;-83
2021/06/11 09:21:43;;;;;;;2.72;2.35;;;;;;;25.43;37.23;101263.70;1765830;80;21743;-83
2021/06/11 09:24:24;;;;;;;4.55;2.72;;;;;;;25.25;37.53;101262.91;1776567;80;21073;-83
2021/06/11 09:27:07;;;;;;;10.68;2.95;;;;;;;25.18;37.94;101254.06;1768405;80;21062;-82
2021/06/11 09:29:46;;;;;;;7.05;3.10;;;;;;;25.25;38.06;101252.12;1773919;80;21053;-82
2021/06/11 09:32:28;;;;;;;4.97;2.70;;;;;;;25.16;38.29;101260.83;1774282;80;21117;-82
2021/06/11 09:35:04;;;;;;;6.05;3.10;;;;;;;25.06;38.58;101255.73;1774389;80;21760;-82
2021/06/11 09:37:37;;;;;;;9.03;3.80;;;;;;;25.03;38.74;101258.94;1792300;79;21054;-83
2021/06/11 09:40:12;;;;;;;10.20;3.20;;;;;;;25.02;38.77;101258.53;1774047;80;21602;-82
2021/06/11 09:42:44;;;;;;;8.65;3.27;;;;;;;24.91;38.78;101253.89;1774066;80;21081;-83
2021/06/11 09:45:14;;;;;;;7.10;3.47;;;;;;;24.76;39.13;101252.48;1774078;80;21691;-82
2021/06/11 09:47:47;;;;;;;5.72;2.92;;;;;;;24.67;39.48;101262.61;1773918;80;22410;-82
2021/06/11 09:50:48;;;;;;;;;;;;;;;24.68;39.46;101249.56;1776467;79;21082;-82
2021/06/11 09:53:11;;;;;;;7.62;4.17;;;;;;;24.77;39.54;101250.67;1733166;80;20219;-82
2021/06/11 09:55:53;;;;;;;5.03;3.55;;;;;;;24.82;39.68;101252.79;1774079;79;21121;-82
2021/06/11 09:58:28;;;;;;;9.17;4.10;;;;;;;24.73;39.82;101250.34;1774655;80;21070;-82
2021/06/11 10:00:57;;;;;;;9.50;4.08;;;;;;;24.58;40.29;101257.87;1774063;80;21792;-82
2021/06/11 10:03:30;;;;;;;10.23;4.15;;;;;;;24.43;40.56;101259.09;1773951;80;21070;-82
2021/06/11 10:05:59;;;;;;;6.95;3.92;;;;;;;24.26;40.65;101263.55;1774443;80;21070;-82
2021/06/11 10:08:31;;;;;;;8.03;4.22;;;;;;;24.12;40.84;101259.41;1773891;80;21060;-82
2021/06/11 10:11:07;;;;;;;11.05;3.77;;;;;;;23.80;41.47;101235.47;1773860;80;21050;-83
2021/06/11 10:13:33;;;;;;;10.55;4.50;;;;;;;23.80;41.47;101235.47;1772849;80;21582;-82
2021/06/11 10:16:06;;;;;;;5.30;4.05;;;;;;;23.91;41.53;101255.41;1773716;80;21542;-82
2021/06/11 10:18:33;;;;;;;5.67;4.58;;;;;;;23.92;41.67;101255.84;1773879;80;21086;-82
2021/06/11 10:21:01;;;;;;;8.08;4.33;;;;;;;24.00;41.88;101257.89;1773878;80;21269;-82
2021/06/11 10:23:29;;;;;;;7.85;3.58;;;;;;;24.06;41.76;101251.92;1773970;80;21069;-82
2021/06/11 10:25:57;;;;;;;5.17;4.35;;;;;;;24.15;41.83;101251.27;1773958;80;21759;-82
2021/06/11 10:28:30;;;;;;;7.33;3.60;;;;;;;24.28;41.85;101257.25;1766845;80;21038;-82
2021/06/11 10:31:02;;;;;;;6.62;4.33;;;;;;;24.39;41.68;101245.30;1776268;80;21085;-82
2021/06/11 10:33:51;;;;;;;8.00;4.45;;;;;;;24.50;41.77;101263.00;1765732;80;21058;-82
2021/06/11 10:36:37;;;;;;;8.78;3.80;;;;;;;24.56;41.65;101248.08;1776416;80;21073;-82
2021/06/11 10:39:12;;;;;;;11.75;4.62;;;;;;;24.66;41.61;101244.69;1776287;80;22444;-82
2021/06/11 10:42:03;;;;;;;6.50;4.12;;;;;;;24.77;41.67;101247.98;1765674;81;21011;-82
2021/06/11 10:44:54;;;;;;;6.83;5.00;;;;;;;24.63;42.00;101235.77;1765783;81;21077;-82
2021/06/11 10:47:24;;;;;;;8.63;4.30;;;;;;;24.38;42.02;101195.12;1765937;81;21569;-82
2021/06/11 10:50:01;;;;;;;4.05;3.62;;;;;;;24.55;42.30;101243.16;1765873;80;21106;-83
2021/06/11 10:52:38;;;;;;;7.00;4.08;;;;;;;24.55;42.30;101243.16;1765983;81;22602;-82
2021/06/11 10:55:24;;;;;;;6.67;3.62;;;;;;;24.43;42.36;101238.05;1764977;81;21507;-82
2021/06/11 10:57:57;;;;;;;4.45;3.30;;;;;;;24.44;42.69;101230.41;1776484;80;21082;-82
2021/06/11 11:00:37;;;;;;;8.95;4.30;;;;;;;24.56;42.79;101238.19;1765965;81;21742;-82
2021/06/11 11:03:06;;;;;;;6.10;3.27;;;;;;;24.62;42.85;101238.48;1776607;80;21073;-82
2021/06/11 11:05:41;;;;;;;5.65;3.75;;;;;;;24.63;42.75;101245.19;1796557;79;21768;-82
2021/06/11 11:08:09;;;;;;;9.45;4.67;;;;;;;24.62;42.67;101239.36;1776228;80;21564;-82
2021/06/11 11:10:46;;;;;;;6.15;4.78;;;;;;;24.55;42.76;101237.78;1765637;80;21065;-82
2021/06/11 11:13:12;;;;;;;4.42;3.33;;;;;;;24.51;42.80;101238.72;1765918;79;20988;-82
2021/06/11 11:15:48;;;;;;;8.40;4.80;;;;;;;24.46;42.96;101246.05;1776670;80;21077;-82
2021/06/11 11:18:23;;;;;;;5.05;3.37;;;;;;;24.32;43.17;101238.77;1765915;80;21693;-82
2021/06/11 11:20:52;;;;;;;6.65;3.60;;;;;;;24.18;43.36;101237.77;1776328;80;21057;-82
2021/06/11 11:23:22;;;;;;;6.45;3.87;;;;;;;24.09;43.74;101241.55;1765511;79;21050;-82
2021/06/11 11:25:49;;;;;;;6.85;3.37;;;;;;;24.09;43.74;101241.55;1776478;80;21207;-82
2021/06/11 11:28:16;;;;;;;4.50;3.67;;;;;;;24.14;43.86;101242.33;1765729;80;21595;-82
2021/06/11 11:30:45;;;;;;;7.67;3.40;;;;;;;24.28;43.75;101233.05;1776481;80;21732;-82
2021/06/11 11:33:13;;;;;;;6.53;3.55;;;;;;;24.44;43.98;101246.08;1765583;80;21109;-82
2021/06/11 11:35:43;;;;;;;11.70;4.47;;;;;;;24.46;44.02;101244.70;1776465;80;21563;-82
2021/06/11 11:38:11;;;;;;;4.95;3.98;;;;;;;24.39;44.16;101230.50;1766130;80;21075;-83
2021/06/11 11:40:40;;;;;;;4.05;3.25;;;;;;;24.38;44.56;101247.59;1776653;80;21548;-82
2021/06/11 11:43:07;;;;;;;5.28;3.70;;;;;;;24.44;44.59;101243.86;1776884;80;22471;-82